Libra Santa Catarina — A8IY7 — position and weather

sailwx.info

Track history (hours):
 
Tides and Currents Weather Stations Pressure Air Temp Water Temp Dewpoint Dewpoint Depression Visibility Wind Speed Wind Dir Waves Ship Positions

Libra Santa Catarina

Last reported at 2017-Dec-21 04:23 UTC. Time now 2018-Jun-25 01:50 UTC.
Position N 36°10' W 005°23'.
Warning: this ship's position is months out of date.

Length 207.5 m; beam 29.8 m; draft 11.4 m.

Type: Ship. MMSI: 636091056.

Date/timePositionNaut miles runAvg speedWind from/ knotsBaromVisibWave heightAir tempDewpointWater temp
2017-Dec-21 04:23N 36°10' W 005°23'0 0.0
2017-Dec-21 03:53N 36°10' W 005°23'0 0.0
2017-Dec-21 02:14N 36°10' W 005°23'0 0.0
2017-Dec-21 01:14N 36°10' W 005°23'0 0.0
2017-Dec-20 23:17N 36°10' W 005°23'0 0.0
2017-Dec-20 22:56N 36°10' W 005°23'0 0.0
2017-Dec-20 22:02N 36°10' W 005°23'0 0.0
2017-Dec-20 21:56N 36°10' W 005°23'2 0.1
2017-Dec-19 07:47N 36°10' W 005°25'0 0.0
2017-Dec-19 07:23N 36°10' W 005°25'0 0.0
2017-Dec-19 05:38N 36°10' W 005°25'0 0.0
2017-Dec-19 05:29N 36°10' W 005°25'0 0.0
2017-Dec-19 04:59N 36°10' W 005°25'0 0.0
2017-Dec-19 04:29N 36°10' W 005°25'0 0.0
2017-Dec-19 03:56N 36°10' W 005°25'0 0.0
2017-Dec-19 03:29N 36°10' W 005°25'0 0.0
2017-Dec-19 02:59N 36°10' W 005°25'0 0.0
2017-Dec-19 02:08N 36°10' W 005°25'0 0.0
2017-Dec-19 01:59N 36°10' W 005°25'0 0.0
2017-Dec-19 01:29N 36°10' W 005°25'0 0.0
2017-Dec-19 00:53N 36°10' W 005°25'0 0.0
2017-Dec-18 23:41N 36°10' W 005°25'0 0.0
2017-Dec-18 23:26N 36°10' W 005°25'0 0.0
2017-Dec-18 22:53N 36°10' W 005°25'0 0.0
2017-Dec-18 22:26N 36°10' W 005°25'0 0.0
2017-Dec-18 21:59N 36°10' W 005°25'0 0.0
2017-Dec-18 21:26N 36°10' W 005°26'0 0.1
2017-Dec-18 20:53N 36°10' W 005°26'0 0.0
2017-Dec-18 19:22N 36°10' W 005°26'4 1.1
2017-Dec-18 15:32N 36°06' W 005°23'1 8.7
2017-Dec-18 15:27N 36°05' W 005°23'613.0
2017-Dec-18 15:00N 36°04' W 005°16'2 1.1
2017-Dec-18 13:37N 36°05' W 005°15'1 5.0
2017-Dec-18 13:23N 36°06' W 005°17'1 1.1
2017-Dec-18 12:50N 36°06' W 005°16'0 1.3
2017-Dec-18 12:31N 36°06' W 005°16'0 1.0
2017-Dec-18 12:01N 36°06' W 005°15'0 0.8
2017-Dec-18 11:31N 36°06' W 005°14'0 0.7
2017-Dec-18 11:00N 36°06' W 005°14'2 2.1
2017-Dec-18 09:57N 36°07' W 005°16'1 2.2
2017-Dec-18 09:28N 36°07' W 005°15'1 2.2
2017-Dec-18 08:59N 36°06' W 005°14'1 1.9
2017-Dec-18 08:30N 36°05' W 005°15'3 6.2
2017-Dec-18 08:01N 36°04' W 005°18'4 6.5
2017-Dec-18 07:26N 36°02' W 005°22'5 8.3
2017-Dec-18 06:48N 35°58' W 005°26'3 8.3
2017-Dec-18 06:28N 35°57' W 005°29'57012.8
2017-Dec-16 10:03N 28°50' W 012°57'118.0
2017-Dec-16 09:59N 28°49' W 012°58'918.0
2017-Dec-16 09:28N 28°42' W 013°04'1217.8
2017-Dec-16 08:49N 28°32' W 013°12'3018.1
2017-Dec-16 07:09N 28°08' W 013°32'317.3
2017-Dec-16 07:00N 28°06' W 013°34'  
Track history (hours):
 
Tides and Currents Weather Stations Pressure Air Temp Water Temp Dewpoint Dewpoint Depression Visibility Wind Speed Wind Dir Waves Ship Positions

Libra Santa Catarina

Last reported at 2017-Dec-21 04:23 UTC. Time now 2018-Jun-25 01:50 UTC.
Position N 36°10' W 005°23'.
Warning: this ship's position is months out of date.

Length 207.5 m; beam 29.8 m; draft 11.4 m.

Type: Ship. MMSI: 636091056.

Date/timePositionNaut miles runAvg speedWind from/ knotsBaromVisibWave heightAir tempDewpointWater temp
2017-Dec-21 04:23N 36°10' W 005°23'0 0.0
2017-Dec-21 03:53N 36°10' W 005°23'0 0.0
2017-Dec-21 02:14N 36°10' W 005°23'0 0.0
2017-Dec-21 01:14N 36°10' W 005°23'0 0.0
2017-Dec-20 23:17N 36°10' W 005°23'0 0.0
2017-Dec-20 22:56N 36°10' W 005°23'0 0.0
2017-Dec-20 22:02N 36°10' W 005°23'0 0.0
2017-Dec-20 21:56N 36°10' W 005°23'2 0.1
2017-Dec-19 07:47N 36°10' W 005°25'0 0.0
2017-Dec-19 07:23N 36°10' W 005°25'0 0.0
2017-Dec-19 05:38N 36°10' W 005°25'0 0.0
2017-Dec-19 05:29N 36°10' W 005°25'0 0.0
2017-Dec-19 04:59N 36°10' W 005°25'0 0.0
2017-Dec-19 04:29N 36°10' W 005°25'0 0.0
2017-Dec-19 03:56N 36°10' W 005°25'0 0.0
2017-Dec-19 03:29N 36°10' W 005°25'0 0.0
2017-Dec-19 02:59N 36°10' W 005°25'0 0.0
2017-Dec-19 02:08N 36°10' W 005°25'0 0.0
2017-Dec-19 01:59N 36°10' W 005°25'0 0.0
2017-Dec-19 01:29N 36°10' W 005°25'0 0.0
2017-Dec-19 00:53N 36°10' W 005°25'0 0.0
2017-Dec-18 23:41N 36°10' W 005°25'0 0.0
2017-Dec-18 23:26N 36°10' W 005°25'0 0.0
2017-Dec-18 22:53N 36°10' W 005°25'0 0.0
2017-Dec-18 22:26N 36°10' W 005°25'0 0.0
2017-Dec-18 21:59N 36°10' W 005°25'0 0.0
2017-Dec-18 21:26N 36°10' W 005°26'0 0.1
2017-Dec-18 20:53N 36°10' W 005°26'0 0.0
2017-Dec-18 19:22N 36°10' W 005°26'4 1.1
2017-Dec-18 15:32N 36°06' W 005°23'1 8.7
2017-Dec-18 15:27N 36°05' W 005°23'613.0
2017-Dec-18 15:00N 36°04' W 005°16'2 1.1
2017-Dec-18 13:37N 36°05' W 005°15'1 5.0
2017-Dec-18 13:23N 36°06' W 005°17'1 1.1
2017-Dec-18 12:50N 36°06' W 005°16'0 1.3
2017-Dec-18 12:31N 36°06' W 005°16'0 1.0
2017-Dec-18 12:01N 36°06' W 005°15'0 0.8
2017-Dec-18 11:31N 36°06' W 005°14'0 0.7
2017-Dec-18 11:00N 36°06' W 005°14'2 2.1
2017-Dec-18 09:57N 36°07' W 005°16'1 2.2
2017-Dec-18 09:28N 36°07' W 005°15'1 2.2
2017-Dec-18 08:59N 36°06' W 005°14'1 1.9
2017-Dec-18 08:30N 36°05' W 005°15'3 6.2
2017-Dec-18 08:01N 36°04' W 005°18'4 6.5
2017-Dec-18 07:26N 36°02' W 005°22'5 8.3
2017-Dec-18 06:48N 35°58' W 005°26'3 8.3
2017-Dec-18 06:28N 35°57' W 005°29'57012.8
2017-Dec-16 10:03N 28°50' W 012°57'118.0
2017-Dec-16 09:59N 28°49' W 012°58'918.0
2017-Dec-16 09:28N 28°42' W 013°04'1217.8
2017-Dec-16 08:49N 28°32' W 013°12'3018.1
2017-Dec-16 07:09N 28°08' W 013°32'317.3
2017-Dec-16 07:00N 28°06' W 013°34'  

Dump ship's entire track history